createdAt,value
2018-06-30T00:01:18.245Z,17.23
2018-06-30T00:06:47.532Z,16.82
2018-06-30T00:12:16.808Z,20.90
2018-06-30T00:17:46.118Z,16.23
2018-06-30T00:23:15.399Z,15.93
2018-06-30T00:28:44.779Z,18.37
2018-06-30T00:34:14.039Z,19.40
2018-06-30T00:39:43.329Z,20.65
2018-06-30T00:45:12.567Z,22.40
2018-06-30T00:50:41.845Z,18.12
2018-06-30T00:56:11.180Z,19.48
2018-06-30T01:01:40.482Z,17.23
2018-06-30T01:07:09.701Z,19.15
2018-06-30T01:12:38.887Z,15.93
2018-06-30T01:18:08.101Z,14.90
2018-06-30T01:23:37.354Z,19.00
2018-06-30T01:29:06.663Z,13.20
2018-06-30T01:34:35.850Z,14.65
2018-06-30T01:40:05.432Z,19.33
2018-06-30T01:45:34.626Z,15.48
2018-06-30T01:51:03.897Z,12.47
2018-06-30T01:56:33.124Z,15.75
2018-06-30T02:02:02.433Z,23.00
2018-06-30T02:07:31.631Z,17.27
2018-06-30T02:13:00.853Z,15.80
2018-06-30T02:18:30.119Z,14.55
2018-06-30T02:23:59.369Z,14.83
2018-06-30T02:29:28.623Z,14.78
2018-06-30T02:34:57.868Z,14.60
2018-06-30T02:40:27.049Z,16.12
2018-06-30T02:45:56.298Z,15.30
2018-06-30T02:51:25.492Z,13.70
2018-06-30T02:56:54.699Z,14.87
2018-06-30T03:02:23.927Z,14.90
2018-06-30T03:07:53.156Z,14.43
2018-06-30T03:13:22.523Z,12.58
2018-06-30T03:18:51.739Z,13.08
2018-06-30T03:24:20.973Z,17.12
2018-06-30T03:29:50.185Z,11.70
2018-06-30T03:35:19.461Z,14.98
2018-06-30T03:40:48.391Z,12.60
2018-06-30T03:46:17.630Z,10.65
2018-06-30T03:51:46.881Z,12.73
2018-06-30T03:57:16.189Z,11.43
2018-06-30T04:02:45.464Z,11.03
2018-06-30T04:08:14.748Z,13.50
2018-06-30T04:13:44.117Z,12.47
2018-06-30T04:19:14.364Z,14.63
2018-06-30T04:24:43.625Z,14.07
2018-06-30T04:30:12.927Z,12.47
2018-06-30T04:35:42.235Z,12.50
2018-06-30T04:41:11.502Z,11.00
2018-06-30T04:46:40.768Z,8.70
2018-06-30T04:52:09.964Z,10.13
2018-06-30T04:57:39.200Z,8.75
2018-06-30T05:03:08.463Z,9.25
2018-06-30T05:08:37.652Z,7.00
2018-06-30T05:14:06.891Z,9.18
2018-06-30T05:19:36.091Z,10.35
2018-06-30T05:25:05.364Z,7.08
2018-06-30T05:30:34.556Z,8.93
2018-06-30T05:36:03.767Z,6.55
2018-06-30T05:41:32.973Z,6.62
2018-06-30T05:47:02.194Z,7.37
2018-06-30T05:52:31.364Z,6.53
2018-06-30T05:58:00.570Z,5.65
2018-06-30T06:03:29.820Z,5.62
2018-06-30T06:08:58.988Z,5.30
2018-06-30T06:14:28.153Z,6.70
2018-06-30T06:19:57.393Z,7.58
2018-06-30T06:25:26.579Z,11.88
2018-06-30T06:30:55.518Z,5.62
2018-06-30T06:36:24.676Z,5.37
2018-06-30T06:41:53.857Z,6.90
2018-06-30T06:47:23.040Z,7.53
2018-06-30T06:52:52.235Z,7.75
2018-06-30T06:58:21.461Z,5.75
2018-06-30T07:03:50.623Z,11.55
2018-06-30T07:09:19.791Z,8.17
2018-06-30T07:14:48.965Z,8.70
2018-06-30T07:20:18.213Z,12.85
2018-06-30T07:25:47.563Z,15.30
2018-06-30T07:31:16.883Z,8.80
2018-06-30T07:36:46.242Z,10.15
2018-06-30T07:42:15.613Z,11.28
2018-06-30T07:47:44.843Z,11.20
2018-06-30T07:53:14.145Z,12.20
2018-06-30T07:58:43.401Z,13.00
2018-06-30T08:04:12.637Z,12.80
2018-06-30T08:09:41.961Z,13.35
2018-06-30T08:15:11.276Z,9.23
2018-06-30T08:20:40.236Z,14.40
2018-06-30T08:26:09.488Z,14.78
2018-06-30T08:31:38.726Z,12.00
2018-06-30T08:37:07.944Z,11.43
2018-06-30T08:42:37.161Z,12.73
2018-06-30T08:48:06.677Z,13.60
2018-06-30T08:53:35.844Z,12.78
2018-06-30T08:59:05.093Z,18.12
2018-06-30T09:04:34.242Z,19.40
2018-06-30T09:10:03.537Z,15.28
2018-06-30T09:15:32.827Z,14.45
2018-06-30T09:21:02.549Z,12.73
2018-06-30T09:26:31.814Z,10.72
2018-06-30T09:32:01.033Z,10.13
2018-06-30T09:37:30.255Z,11.87
2018-06-30T09:42:59.417Z,6.93
2018-06-30T09:48:28.677Z,12.93
2018-06-30T09:53:57.847Z,8.27
2018-06-30T09:59:27.041Z,6.75
2018-06-30T10:04:56.295Z,4.07
2018-06-30T10:10:25.457Z,6.33
2018-06-30T10:15:54.700Z,6.00
2018-06-30T10:21:23.877Z,9.23
2018-06-30T10:26:53.125Z,11.30
2018-06-30T10:32:22.309Z,10.15
2018-06-30T10:37:51.519Z,8.40
2018-06-30T10:43:20.705Z,9.00
2018-06-30T10:48:49.980Z,14.53
2018-06-30T10:54:19.202Z,9.45
2018-06-30T10:59:48.431Z,8.73
2018-06-30T11:05:17.392Z,7.20
2018-06-30T11:10:46.620Z,9.43
2018-06-30T11:16:15.862Z,10.10
2018-06-30T11:21:45.093Z,5.87
2018-06-30T11:27:14.354Z,7.40
2018-06-30T11:32:43.632Z,9.03
2018-06-30T11:38:13.008Z,5.37
2018-06-30T11:43:42.302Z,8.27
2018-06-30T11:49:11.573Z,7.63
2018-06-30T11:54:40.775Z,5.60
2018-06-30T12:00:10.330Z,6.20
2018-06-30T12:05:39.553Z,5.37
2018-06-30T12:11:08.819Z,5.05
2018-06-30T12:16:38.332Z,5.17
2018-06-30T12:22:07.526Z,7.45
2018-06-30T12:27:36.732Z,7.10
2018-06-30T12:33:05.949Z,6.93
2018-06-30T12:38:35.114Z,4.60
2018-06-30T12:44:04.536Z,5.00
2018-06-30T12:49:33.761Z,5.30
2018-06-30T12:55:03.057Z,7.00
2018-06-30T13:00:32.234Z,6.50
2018-06-30T13:06:01.617Z,8.58
2018-06-30T13:11:30.847Z,7.17
2018-06-30T13:17:00.033Z,14.23
2018-06-30T13:22:29.244Z,9.37
2018-06-30T13:27:58.460Z,8.00
2018-06-30T13:33:27.617Z,7.27
2018-06-30T13:38:56.831Z,7.93
2018-06-30T13:44:26.053Z,5.23
2018-06-30T13:49:55.241Z,10.95
2018-06-30T13:55:24.467Z,9.87
2018-06-30T14:00:53.700Z,7.00
2018-06-30T14:06:22.900Z,10.70
2018-06-30T14:11:52.103Z,11.22
2018-06-30T14:17:21.378Z,8.87
2018-06-30T14:22:50.574Z,8.43
2018-06-30T14:28:19.861Z,11.40
2018-06-30T14:33:49.242Z,13.75
2018-06-30T14:39:18.463Z,9.60
2018-06-30T14:44:47.713Z,8.43
2018-06-30T14:50:16.930Z,11.37
2018-06-30T14:55:46.204Z,16.73
2018-06-30T15:01:15.489Z,10.08
2018-06-30T15:06:44.887Z,11.33
2018-06-30T15:12:14.330Z,7.80
2018-06-30T15:17:43.697Z,15.15
2018-06-30T15:23:12.983Z,7.37
2018-06-30T15:28:42.468Z,6.80
2018-06-30T15:34:11.711Z,8.08
2018-06-30T15:39:40.932Z,7.97
2018-06-30T15:45:10.719Z,8.30
2018-06-30T15:50:39.911Z,9.90
2018-06-30T15:56:09.118Z,7.20
2018-06-30T16:01:38.341Z,11.33
2018-06-30T16:07:07.547Z,11.13
2018-06-30T16:12:36.763Z,10.53
2018-06-30T16:18:06.531Z,8.10
2018-06-30T16:23:35.773Z,8.43
2018-06-30T16:29:05.046Z,7.63
2018-06-30T16:34:34.268Z,7.45
2018-06-30T16:40:03.564Z,8.85
2018-06-30T16:45:33.919Z,9.80
2018-06-30T16:51:03.200Z,9.63
2018-06-30T16:56:32.455Z,7.87
2018-06-30T17:02:01.668Z,9.85
2018-06-30T17:07:30.899Z,10.23
2018-06-30T17:13:00.617Z,7.97
2018-06-30T17:18:29.854Z,5.10
2018-06-30T17:23:59.052Z,10.93
2018-06-30T17:29:28.275Z,8.43
2018-06-30T17:34:57.484Z,4.55
2018-06-30T17:40:26.685Z,4.40
2018-06-30T17:45:55.894Z,8.95
2018-06-30T17:51:25.106Z,3.00
2018-06-30T17:56:54.336Z,2.98
2018-06-30T18:02:23.603Z,8.90
2018-06-30T18:07:52.605Z,7.97
2018-06-30T18:13:21.871Z,2.10
2018-06-30T18:18:51.129Z,3.42
2018-06-30T18:24:20.073Z,7.45
2018-06-30T18:29:49.393Z,2.77
2018-06-30T18:35:18.648Z,3.00
2018-06-30T18:40:47.945Z,3.27
2018-06-30T18:46:17.333Z,3.10
2018-06-30T18:51:46.661Z,2.40
2018-06-30T18:57:15.909Z,2.10
2018-06-30T19:02:45.217Z,1.90
2018-06-30T19:08:14.561Z,4.22
2018-06-30T19:13:44.047Z,5.73
2018-06-30T19:19:13.323Z,3.37
2018-06-30T19:24:42.649Z,2.98
2018-06-30T19:30:11.901Z,2.30
2018-06-30T19:35:41.223Z,2.47
2018-06-30T19:41:10.404Z,3.10
2018-06-30T19:46:39.764Z,3.25
2018-06-30T19:52:08.993Z,5.50
2018-06-30T19:57:38.187Z,11.50
2018-06-30T20:03:07.473Z,3.75
2018-06-30T20:08:36.733Z,1.92
2018-06-30T20:14:06.090Z,2.02
2018-06-30T20:19:35.348Z,2.30
2018-06-30T20:25:04.693Z,3.95
2018-06-30T20:30:33.942Z,4.62
2018-06-30T20:36:03.215Z,4.35
2018-06-30T20:41:32.464Z,6.22
2018-06-30T20:47:01.668Z,2.98
2018-06-30T20:52:31.043Z,3.72
2018-06-30T20:58:00.313Z,4.00
2018-06-30T21:03:29.492Z,3.02
2018-06-30T21:08:58.755Z,2.40
2018-06-30T21:14:27.941Z,2.62
2018-06-30T21:19:57.537Z,1.47
2018-06-30T21:25:26.719Z,2.02
2018-06-30T21:30:55.971Z,2.47
2018-06-30T21:36:25.208Z,5.10
2018-06-30T21:41:56.791Z,5.15
2018-06-30T21:47:25.997Z,1.70
2018-06-30T21:52:55.249Z,1.90
2018-06-30T21:58:24.481Z,2.42
2018-06-30T22:03:55.006Z,5.05
2018-06-30T22:09:24.153Z,2.02
2018-06-30T22:14:53.445Z,3.58
2018-06-30T22:20:22.656Z,2.80
2018-06-30T22:25:53.440Z,4.05
2018-06-30T22:31:22.633Z,2.02
2018-06-30T22:36:51.851Z,2.55
2018-06-30T22:42:21.113Z,3.75
2018-06-30T22:47:50.363Z,1.55
2018-06-30T22:53:19.585Z,3.70
2018-06-30T22:58:48.848Z,3.12
2018-06-30T23:04:18.200Z,2.10
2018-06-30T23:09:47.544Z,6.55
2018-06-30T23:15:16.867Z,3.60
2018-06-30T23:20:46.148Z,2.22
2018-06-30T23:26:15.554Z,1.52
2018-06-30T23:31:44.893Z,1.40
2018-06-30T23:37:14.266Z,2.15
2018-06-30T23:42:43.651Z,4.40
2018-06-30T23:48:12.905Z,1.98
2018-06-30T23:53:42.221Z,1.92
2018-06-30T23:59:11.565Z,1.72
